<?xml version="1.0" encoding="UTF-8" standalone="no" ?>
<gpx xmlns="http://www.topografix.com/GPX/1/1" xmlns:xsi="http://www.w3.org/2001/XMLSchema-instance" xsi:schemaLocation="http://www.topografix.com/GPX/1/1 http://www.topografix.com/GPX/1/1/gpx.xsd" version="1.1" creator="VisuGPX - https://www.visugpx.com">
  <metadata>
    <name>Font Blanche</name>
    <desc><![CDATA[Sans difficulté.]]></desc>
  </metadata>
  <trk>
    <name><![CDATA[Font Blanche_2]]></name>
    <trkseg>
      <trkpt lat="43.24962" lon="5.68124">
        <ele>455.4</ele>
        <time>2016-05-25T08:57:27Z</time>
      </trkpt>
      <trkpt lat="43.24961" lon="5.68125">
        <ele>455.5</ele>
        <time>2016-05-25T08:57:28Z</time>
      </trkpt>
      <trkpt lat="43.24933" lon="5.6815">
        <ele>454.2</ele>
        <time>2016-05-25T08:58:02Z</time>
      </trkpt>
      <trkpt lat="43.24916" lon="5.68154">
        <ele>452.1</ele>
        <time>2016-05-25T08:58:28Z</time>
      </trkpt>
      <trkpt lat="43.249" lon="5.68163">
        <ele>451.8</ele>
        <time>2016-05-25T08:58:49Z</time>
      </trkpt>
      <trkpt lat="43.24899" lon="5.68164">
        <ele>452.2</ele>
        <time>2016-05-25T08:58:50Z</time>
      </trkpt>
      <trkpt lat="43.24867" lon="5.68182">
        <ele>453.2</ele>
        <time>2016-05-25T08:59:39Z</time>
      </trkpt>
      <trkpt lat="43.2486" lon="5.68205">
        <ele>455.2</ele>
        <time>2016-05-25T09:00:02Z</time>
      </trkpt>
      <trkpt lat="43.2486" lon="5.68206">
        <ele>455.3</ele>
        <time>2016-05-25T09:00:03Z</time>
      </trkpt>
      <trkpt lat="43.24873" lon="5.68223">
        <ele>453.5</ele>
        <time>2016-05-25T09:02:27Z</time>
      </trkpt>
      <trkpt lat="43.24905" lon="5.68242">
        <ele>458.6</ele>
        <time>2016-05-25T09:03:20Z</time>
      </trkpt>
      <trkpt lat="43.24921" lon="5.68252">
        <ele>463.3</ele>
        <time>2016-05-25T09:03:49Z</time>
      </trkpt>
      <trkpt lat="43.24922" lon="5.68252">
        <ele>463.7</ele>
        <time>2016-05-25T09:03:50Z</time>
      </trkpt>
      <trkpt lat="43.24954" lon="5.68268">
        <ele>470.7</ele>
        <time>2016-05-25T09:04:40Z</time>
      </trkpt>
      <trkpt lat="43.24968" lon="5.68284">
        <ele>473.8</ele>
        <time>2016-05-25T09:05:03Z</time>
      </trkpt>
      <trkpt lat="43.24968" lon="5.68284">
        <ele>474.2</ele>
        <time>2016-05-25T09:05:04Z</time>
      </trkpt>
      <trkpt lat="43.24999" lon="5.68305">
        <ele>477.1</ele>
        <time>2016-05-25T09:05:51Z</time>
      </trkpt>
      <trkpt lat="43.25013" lon="5.68321">
        <ele>476.6</ele>
        <time>2016-05-25T09:06:21Z</time>
      </trkpt>
      <trkpt lat="43.25013" lon="5.68322">
        <ele>476.7</ele>
        <time>2016-05-25T09:06:22Z</time>
      </trkpt>
      <trkpt lat="43.25025" lon="5.68366">
        <ele>473.5</ele>
        <time>2016-05-25T09:07:24Z</time>
      </trkpt>
      <trkpt lat="43.25025" lon="5.68367">
        <ele>473.5</ele>
        <time>2016-05-25T09:07:25Z</time>
      </trkpt>
      <trkpt lat="43.25038" lon="5.68411">
        <ele>468.3</ele>
        <time>2016-05-25T09:08:07Z</time>
      </trkpt>
      <trkpt lat="43.25042" lon="5.68434">
        <ele>470.6</ele>
        <time>2016-05-25T09:08:27Z</time>
      </trkpt>
      <trkpt lat="43.25042" lon="5.68436">
        <ele>470.6</ele>
        <time>2016-05-25T09:08:28Z</time>
      </trkpt>
      <trkpt lat="43.2506" lon="5.68475">
        <ele>484</ele>
        <time>2016-05-25T09:11:34Z</time>
      </trkpt>
      <trkpt lat="43.2506" lon="5.68475">
        <ele>484.2</ele>
        <time>2016-05-25T09:11:35Z</time>
      </trkpt>
      <trkpt lat="43.25069" lon="5.68496">
        <ele>479.6</ele>
        <time>2016-05-25T09:13:47Z</time>
      </trkpt>
      <trkpt lat="43.25084" lon="5.6851">
        <ele>470.1</ele>
        <time>2016-05-25T09:15:59Z</time>
      </trkpt>
      <trkpt lat="43.25084" lon="5.6851">
        <ele>470</ele>
        <time>2016-05-25T09:16:00Z</time>
      </trkpt>
      <trkpt lat="43.25102" lon="5.68504">
        <ele>459.7</ele>
        <time>2016-05-25T09:18:36Z</time>
      </trkpt>
      <trkpt lat="43.25126" lon="5.68537">
        <ele>436.8</ele>
        <time>2016-05-25T09:21:13Z</time>
      </trkpt>
      <trkpt lat="43.25126" lon="5.68537">
        <ele>436.2</ele>
        <time>2016-05-25T09:21:14Z</time>
      </trkpt>
      <trkpt lat="43.25155" lon="5.68564">
        <ele>427.1</ele>
        <time>2016-05-25T09:22:48Z</time>
      </trkpt>
      <trkpt lat="43.25155" lon="5.68565">
        <ele>427.1</ele>
        <time>2016-05-25T09:22:49Z</time>
      </trkpt>
      <trkpt lat="43.2517" lon="5.68577">
        <ele>423.7</ele>
        <time>2016-05-25T09:24:16Z</time>
      </trkpt>
      <trkpt lat="43.25173" lon="5.68602">
        <ele>410.7</ele>
        <time>2016-05-25T09:27:21Z</time>
      </trkpt>
      <trkpt lat="43.25187" lon="5.68606">
        <ele>403.2</ele>
        <time>2016-05-25T09:28:02Z</time>
      </trkpt>
      <trkpt lat="43.25198" lon="5.68588">
        <ele>403.2</ele>
        <time>2016-05-25T09:28:19Z</time>
      </trkpt>
      <trkpt lat="43.25202" lon="5.68564">
        <ele>399.7</ele>
        <time>2016-05-25T09:28:39Z</time>
      </trkpt>
      <trkpt lat="43.25202" lon="5.68563">
        <ele>399.6</ele>
        <time>2016-05-25T09:28:40Z</time>
      </trkpt>
      <trkpt lat="43.25223" lon="5.68599">
        <ele>397.8</ele>
        <time>2016-05-25T09:29:48Z</time>
      </trkpt>
      <trkpt lat="43.25224" lon="5.686">
        <ele>397.8</ele>
        <time>2016-05-25T09:29:49Z</time>
      </trkpt>
      <trkpt lat="43.25221" lon="5.68647">
        <ele>376.5</ele>
        <time>2016-05-25T09:30:25Z</time>
      </trkpt>
      <trkpt lat="43.25224" lon="5.6867">
        <ele>375.1</ele>
        <time>2016-05-25T09:30:42Z</time>
      </trkpt>
      <trkpt lat="43.25228" lon="5.68693">
        <ele>384.2</ele>
        <time>2016-05-25T09:30:59Z</time>
      </trkpt>
      <trkpt lat="43.25229" lon="5.68694">
        <ele>384.7</ele>
        <time>2016-05-25T09:31:00Z</time>
      </trkpt>
      <trkpt lat="43.2522" lon="5.68734">
        <ele>382.2</ele>
        <time>2016-05-25T09:31:51Z</time>
      </trkpt>
      <trkpt lat="43.25206" lon="5.68749">
        <ele>381.2</ele>
        <time>2016-05-25T09:32:10Z</time>
      </trkpt>
      <trkpt lat="43.25206" lon="5.68749">
        <ele>381.3</ele>
        <time>2016-05-25T09:32:11Z</time>
      </trkpt>
      <trkpt lat="43.25184" lon="5.68784">
        <ele>383.2</ele>
        <time>2016-05-25T09:32:42Z</time>
      </trkpt>
      <trkpt lat="43.25174" lon="5.68805">
        <ele>383.1</ele>
        <time>2016-05-25T09:33:08Z</time>
      </trkpt>
      <trkpt lat="43.25157" lon="5.68809">
        <ele>388</ele>
        <time>2016-05-25T09:34:32Z</time>
      </trkpt>
      <trkpt lat="43.25157" lon="5.6881">
        <ele>388</ele>
        <time>2016-05-25T09:34:33Z</time>
      </trkpt>
      <trkpt lat="43.25129" lon="5.68835">
        <ele>384.1</ele>
        <time>2016-05-25T09:35:03Z</time>
      </trkpt>
      <trkpt lat="43.25113" lon="5.68845">
        <ele>381.8</ele>
        <time>2016-05-25T09:35:18Z</time>
      </trkpt>
      <trkpt lat="43.25096" lon="5.68853">
        <ele>379.2</ele>
        <time>2016-05-25T09:35:34Z</time>
      </trkpt>
      <trkpt lat="43.25095" lon="5.68853">
        <ele>379.2</ele>
        <time>2016-05-25T09:35:35Z</time>
      </trkpt>
      <trkpt lat="43.25064" lon="5.68871">
        <ele>374</ele>
        <time>2016-05-25T09:36:05Z</time>
      </trkpt>
      <trkpt lat="43.25049" lon="5.68884">
        <ele>372.7</ele>
        <time>2016-05-25T09:36:21Z</time>
      </trkpt>
      <trkpt lat="43.25035" lon="5.68898">
        <ele>372.2</ele>
        <time>2016-05-25T09:36:35Z</time>
      </trkpt>
      <trkpt lat="43.25034" lon="5.68899">
        <ele>371.7</ele>
        <time>2016-05-25T09:36:36Z</time>
      </trkpt>
      <trkpt lat="43.25005" lon="5.68923">
        <ele>367.7</ele>
        <time>2016-05-25T09:37:07Z</time>
      </trkpt>
      <trkpt lat="43.24989" lon="5.68933">
        <ele>370.7</ele>
        <time>2016-05-25T09:37:22Z</time>
      </trkpt>
      <trkpt lat="43.24974" lon="5.68945">
        <ele>372.1</ele>
        <time>2016-05-25T09:37:38Z</time>
      </trkpt>
      <trkpt lat="43.24973" lon="5.68946">
        <ele>372.1</ele>
        <time>2016-05-25T09:37:39Z</time>
      </trkpt>
      <trkpt lat="43.24943" lon="5.6897">
        <ele>370.2</ele>
        <time>2016-05-25T09:38:09Z</time>
      </trkpt>
      <trkpt lat="43.24928" lon="5.6898">
        <ele>366</ele>
        <time>2016-05-25T09:38:24Z</time>
      </trkpt>
      <trkpt lat="43.24912" lon="5.68989">
        <ele>364.2</ele>
        <time>2016-05-25T09:38:39Z</time>
      </trkpt>
      <trkpt lat="43.24911" lon="5.6899">
        <ele>364.2</ele>
        <time>2016-05-25T09:38:40Z</time>
      </trkpt>
      <trkpt lat="43.2488" lon="5.69008">
        <ele>359.5</ele>
        <time>2016-05-25T09:39:09Z</time>
      </trkpt>
      <trkpt lat="43.24864" lon="5.69018">
        <ele>358</ele>
        <time>2016-05-25T09:39:24Z</time>
      </trkpt>
      <trkpt lat="43.24848" lon="5.69026">
        <ele>359.3</ele>
        <time>2016-05-25T09:39:38Z</time>
      </trkpt>
      <trkpt lat="43.24831" lon="5.69031">
        <ele>355.3</ele>
        <time>2016-05-25T09:39:55Z</time>
      </trkpt>
      <trkpt lat="43.2483" lon="5.69032">
        <ele>355.3</ele>
        <time>2016-05-25T09:39:56Z</time>
      </trkpt>
      <trkpt lat="43.24797" lon="5.6904">
        <ele>353.5</ele>
        <time>2016-05-25T09:40:24Z</time>
      </trkpt>
      <trkpt lat="43.2478" lon="5.69041">
        <ele>356.7</ele>
        <time>2016-05-25T09:40:38Z</time>
      </trkpt>
      <trkpt lat="43.24764" lon="5.69048">
        <ele>362.7</ele>
        <time>2016-05-25T09:40:54Z</time>
      </trkpt>
      <trkpt lat="43.24748" lon="5.6906">
        <ele>362.1</ele>
        <time>2016-05-25T09:41:09Z</time>
      </trkpt>
      <trkpt lat="43.24747" lon="5.69061">
        <ele>361</ele>
        <time>2016-05-25T09:41:10Z</time>
      </trkpt>
      <trkpt lat="43.24729" lon="5.69065">
        <ele>355.6</ele>
        <time>2016-05-25T09:42:18Z</time>
      </trkpt>
      <trkpt lat="43.24698" lon="5.69048">
        <ele>365.3</ele>
        <time>2016-05-25T09:43:05Z</time>
      </trkpt>
      <trkpt lat="43.24681" lon="5.69042">
        <ele>363.7</ele>
        <time>2016-05-25T09:43:28Z</time>
      </trkpt>
      <trkpt lat="43.2468" lon="5.69042">
        <ele>363.7</ele>
        <time>2016-05-25T09:43:29Z</time>
      </trkpt>
      <trkpt lat="43.24649" lon="5.6906">
        <ele>358.7</ele>
        <time>2016-05-25T09:44:19Z</time>
      </trkpt>
      <trkpt lat="43.24631" lon="5.69062">
        <ele>367.1</ele>
        <time>2016-05-25T09:44:41Z</time>
      </trkpt>
      <trkpt lat="43.2463" lon="5.69061">
        <ele>367.2</ele>
        <time>2016-05-25T09:44:42Z</time>
      </trkpt>
      <trkpt lat="43.24617" lon="5.69046">
        <ele>380.7</ele>
        <time>2016-05-25T09:46:10Z</time>
      </trkpt>
      <trkpt lat="43.24588" lon="5.69026">
        <ele>378.3</ele>
        <time>2016-05-25T09:46:52Z</time>
      </trkpt>
      <trkpt lat="43.2457" lon="5.69024">
        <ele>379.2</ele>
        <time>2016-05-25T09:47:24Z</time>
      </trkpt>
      <trkpt lat="43.2457" lon="5.69025">
        <ele>379</ele>
        <time>2016-05-25T09:47:25Z</time>
      </trkpt>
      <trkpt lat="43.24574" lon="5.69023">
        <ele>395.7</ele>
        <time>2016-05-25T09:50:10Z</time>
      </trkpt>
      <trkpt lat="43.24574" lon="5.6902">
        <ele>373.2</ele>
        <time>2016-05-25T11:12:29Z</time>
      </trkpt>
      <trkpt lat="43.24574" lon="5.69018">
        <ele>371.8</ele>
        <time>2016-05-25T11:12:30Z</time>
      </trkpt>
      <trkpt lat="43.24563" lon="5.69035">
        <ele>386</ele>
        <time>2016-05-25T11:14:35Z</time>
      </trkpt>
      <trkpt lat="43.24562" lon="5.69037">
        <ele>386.7</ele>
        <time>2016-05-25T11:14:36Z</time>
      </trkpt>
      <trkpt lat="43.24529" lon="5.69026">
        <ele>387</ele>
        <time>2016-05-25T11:15:17Z</time>
      </trkpt>
      <trkpt lat="43.24512" lon="5.69032">
        <ele>380.7</ele>
        <time>2016-05-25T11:15:38Z</time>
      </trkpt>
      <trkpt lat="43.24511" lon="5.69032">
        <ele>381.6</ele>
        <time>2016-05-25T11:15:39Z</time>
      </trkpt>
      <trkpt lat="43.24493" lon="5.69072">
        <ele>384.5</ele>
        <time>2016-05-25T11:16:17Z</time>
      </trkpt>
      <trkpt lat="43.24491" lon="5.69095">
        <ele>387.8</ele>
        <time>2016-05-25T11:16:37Z</time>
      </trkpt>
      <trkpt lat="43.24493" lon="5.69119">
        <ele>388.1</ele>
        <time>2016-05-25T11:16:55Z</time>
      </trkpt>
      <trkpt lat="43.24493" lon="5.6912">
        <ele>388.2</ele>
        <time>2016-05-25T11:16:56Z</time>
      </trkpt>
      <trkpt lat="43.24502" lon="5.69167">
        <ele>388.3</ele>
        <time>2016-05-25T11:17:37Z</time>
      </trkpt>
      <trkpt lat="43.24508" lon="5.69189">
        <ele>389.5</ele>
        <time>2016-05-25T11:18:02Z</time>
      </trkpt>
      <trkpt lat="43.24509" lon="5.6919">
        <ele>389.6</ele>
        <time>2016-05-25T11:18:03Z</time>
      </trkpt>
      <trkpt lat="43.24531" lon="5.69221">
        <ele>398</ele>
        <time>2016-05-25T11:19:11Z</time>
      </trkpt>
      <trkpt lat="43.24532" lon="5.69219">
        <ele>397.3</ele>
        <time>2016-05-25T11:19:12Z</time>
      </trkpt>
      <trkpt lat="43.24559" lon="5.69208">
        <ele>401.2</ele>
        <time>2016-05-25T11:19:59Z</time>
      </trkpt>
      <trkpt lat="43.24565" lon="5.69231">
        <ele>407.2</ele>
        <time>2016-05-25T11:20:31Z</time>
      </trkpt>
      <trkpt lat="43.24565" lon="5.69232">
        <ele>407.1</ele>
        <time>2016-05-25T11:20:32Z</time>
      </trkpt>
      <trkpt lat="43.24583" lon="5.69269">
        <ele>423.8</ele>
        <time>2016-05-25T11:21:48Z</time>
      </trkpt>
      <trkpt lat="43.24583" lon="5.6927">
        <ele>423.7</ele>
        <time>2016-05-25T11:21:49Z</time>
      </trkpt>
      <trkpt lat="43.24583" lon="5.69318">
        <ele>424.1</ele>
        <time>2016-05-25T11:22:44Z</time>
      </trkpt>
      <trkpt lat="43.24579" lon="5.69341">
        <ele>427.7</ele>
        <time>2016-05-25T11:23:08Z</time>
      </trkpt>
      <trkpt lat="43.24579" lon="5.69342">
        <ele>427.8</ele>
        <time>2016-05-25T11:23:09Z</time>
      </trkpt>
      <trkpt lat="43.24577" lon="5.69389">
        <ele>426.7</ele>
        <time>2016-05-25T11:24:00Z</time>
      </trkpt>
      <trkpt lat="43.2459" lon="5.69404">
        <ele>427.6</ele>
        <time>2016-05-25T11:24:20Z</time>
      </trkpt>
      <trkpt lat="43.24591" lon="5.69405">
        <ele>427.6</ele>
        <time>2016-05-25T11:24:21Z</time>
      </trkpt>
      <trkpt lat="43.2462" lon="5.69429">
        <ele>427.2</ele>
        <time>2016-05-25T11:24:54Z</time>
      </trkpt>
      <trkpt lat="43.24638" lon="5.69428">
        <ele>425.2</ele>
        <time>2016-05-25T11:25:47Z</time>
      </trkpt>
      <trkpt lat="43.24638" lon="5.69428">
        <ele>424.8</ele>
        <time>2016-05-25T11:25:48Z</time>
      </trkpt>
      <trkpt lat="43.24658" lon="5.69388">
        <ele>417.5</ele>
        <time>2016-05-25T11:26:58Z</time>
      </trkpt>
      <trkpt lat="43.24658" lon="5.69388">
        <ele>417.2</ele>
        <time>2016-05-25T11:26:59Z</time>
      </trkpt>
      <trkpt lat="43.24676" lon="5.69387">
        <ele>428.2</ele>
        <time>2016-05-25T11:28:36Z</time>
      </trkpt>
      <trkpt lat="43.24658" lon="5.69394">
        <ele>430.1</ele>
        <time>2016-05-25T11:33:05Z</time>
      </trkpt>
      <trkpt lat="43.24658" lon="5.6943">
        <ele>424.7</ele>
        <time>2016-05-25T11:33:51Z</time>
      </trkpt>
      <trkpt lat="43.24665" lon="5.69452">
        <ele>426.3</ele>
        <time>2016-05-25T11:34:12Z</time>
      </trkpt>
      <trkpt lat="43.24664" lon="5.69454">
        <ele>426.3</ele>
        <time>2016-05-25T11:34:13Z</time>
      </trkpt>
      <trkpt lat="43.2467" lon="5.695">
        <ele>428.2</ele>
        <time>2016-05-25T11:34:56Z</time>
      </trkpt>
      <trkpt lat="43.24676" lon="5.69523">
        <ele>428.5</ele>
        <time>2016-05-25T11:35:17Z</time>
      </trkpt>
      <trkpt lat="43.24677" lon="5.69524">
        <ele>428.5</ele>
        <time>2016-05-25T11:35:18Z</time>
      </trkpt>
      <trkpt lat="43.24685" lon="5.6957">
        <ele>433.2</ele>
        <time>2016-05-25T11:36:22Z</time>
      </trkpt>
      <trkpt lat="43.24685" lon="5.6957">
        <ele>433.2</ele>
        <time>2016-05-25T11:36:23Z</time>
      </trkpt>
      <trkpt lat="43.24699" lon="5.69553">
        <ele>436.6</ele>
        <time>2016-05-25T11:37:30Z</time>
      </trkpt>
      <trkpt lat="43.24732" lon="5.69568">
        <ele>433.6</ele>
        <time>2016-05-25T11:38:32Z</time>
      </trkpt>
      <trkpt lat="43.24733" lon="5.69568">
        <ele>434.2</ele>
        <time>2016-05-25T11:38:33Z</time>
      </trkpt>
      <trkpt lat="43.24767" lon="5.69577">
        <ele>431</ele>
        <time>2016-05-25T11:39:37Z</time>
      </trkpt>
      <trkpt lat="43.24768" lon="5.69577">
        <ele>431</ele>
        <time>2016-05-25T11:39:38Z</time>
      </trkpt>
      <trkpt lat="43.24803" lon="5.69579">
        <ele>432.6</ele>
        <time>2016-05-25T11:40:33Z</time>
      </trkpt>
      <trkpt lat="43.24818" lon="5.69589">
        <ele>435.7</ele>
        <time>2016-05-25T11:41:04Z</time>
      </trkpt>
      <trkpt lat="43.24819" lon="5.6959">
        <ele>435.7</ele>
        <time>2016-05-25T11:41:05Z</time>
      </trkpt>
      <trkpt lat="43.24849" lon="5.69611">
        <ele>443.3</ele>
        <time>2016-05-25T11:42:36Z</time>
      </trkpt>
      <trkpt lat="43.2485" lon="5.69611">
        <ele>443.6</ele>
        <time>2016-05-25T11:42:37Z</time>
      </trkpt>
      <trkpt lat="43.24884" lon="5.6962">
        <ele>448.7</ele>
        <time>2016-05-25T11:44:19Z</time>
      </trkpt>
      <trkpt lat="43.24885" lon="5.6962">
        <ele>448.5</ele>
        <time>2016-05-25T11:44:20Z</time>
      </trkpt>
      <trkpt lat="43.24917" lon="5.69639">
        <ele>458.2</ele>
        <time>2016-05-25T11:45:28Z</time>
      </trkpt>
      <trkpt lat="43.24918" lon="5.69639">
        <ele>458.2</ele>
        <time>2016-05-25T11:45:29Z</time>
      </trkpt>
      <trkpt lat="43.24933" lon="5.69653">
        <ele>459.1</ele>
        <time>2016-05-25T11:47:05Z</time>
      </trkpt>
      <trkpt lat="43.2495" lon="5.69658">
        <ele>466.8</ele>
        <time>2016-05-25T11:50:34Z</time>
      </trkpt>
      <trkpt lat="43.24932" lon="5.69652">
        <ele>461.5</ele>
        <time>2016-05-25T11:52:07Z</time>
      </trkpt>
      <trkpt lat="43.2491" lon="5.6969">
        <ele>458.6</ele>
        <time>2016-05-25T11:53:41Z</time>
      </trkpt>
      <trkpt lat="43.2491" lon="5.6969">
        <ele>458.6</ele>
        <time>2016-05-25T11:53:42Z</time>
      </trkpt>
      <trkpt lat="43.2489" lon="5.69729">
        <ele>446.8</ele>
        <time>2016-05-25T11:54:45Z</time>
      </trkpt>
      <trkpt lat="43.2489" lon="5.6973">
        <ele>446.7</ele>
        <time>2016-05-25T11:54:46Z</time>
      </trkpt>
      <trkpt lat="43.24863" lon="5.69761">
        <ele>439.1</ele>
        <time>2016-05-25T11:55:36Z</time>
      </trkpt>
      <trkpt lat="43.2485" lon="5.69777">
        <ele>438.2</ele>
        <time>2016-05-25T11:55:56Z</time>
      </trkpt>
      <trkpt lat="43.24849" lon="5.69777">
        <ele>438.8</ele>
        <time>2016-05-25T11:55:57Z</time>
      </trkpt>
      <trkpt lat="43.24828" lon="5.69815">
        <ele>433.7</ele>
        <time>2016-05-25T11:56:55Z</time>
      </trkpt>
      <trkpt lat="43.24814" lon="5.6983">
        <ele>438.2</ele>
        <time>2016-05-25T11:57:16Z</time>
      </trkpt>
      <trkpt lat="43.24813" lon="5.69831">
        <ele>438.7</ele>
        <time>2016-05-25T11:57:17Z</time>
      </trkpt>
      <trkpt lat="43.24782" lon="5.6985">
        <ele>435.3</ele>
        <time>2016-05-25T11:58:02Z</time>
      </trkpt>
      <trkpt lat="43.24778" lon="5.69873">
        <ele>429.5</ele>
        <time>2016-05-25T11:58:36Z</time>
      </trkpt>
      <trkpt lat="43.24778" lon="5.69874">
        <ele>429.2</ele>
        <time>2016-05-25T11:58:37Z</time>
      </trkpt>
      <trkpt lat="43.24753" lon="5.69907">
        <ele>424.2</ele>
        <time>2016-05-25T11:59:18Z</time>
      </trkpt>
      <trkpt lat="43.24739" lon="5.69921">
        <ele>420.6</ele>
        <time>2016-05-25T11:59:41Z</time>
      </trkpt>
      <trkpt lat="43.24739" lon="5.69922">
        <ele>421.2</ele>
        <time>2016-05-25T11:59:42Z</time>
      </trkpt>
      <trkpt lat="43.24709" lon="5.69948">
        <ele>411.2</ele>
        <time>2016-05-25T12:00:34Z</time>
      </trkpt>
      <trkpt lat="43.24696" lon="5.69963">
        <ele>413</ele>
        <time>2016-05-25T12:00:58Z</time>
      </trkpt>
      <trkpt lat="43.24695" lon="5.69964">
        <ele>412.3</ele>
        <time>2016-05-25T12:00:59Z</time>
      </trkpt>
      <trkpt lat="43.24668" lon="5.69994">
        <ele>397.3</ele>
        <time>2016-05-25T12:02:01Z</time>
      </trkpt>
      <trkpt lat="43.24668" lon="5.69994">
        <ele>397.2</ele>
        <time>2016-05-25T12:02:02Z</time>
      </trkpt>
      <trkpt lat="43.24642" lon="5.70025">
        <ele>394</ele>
        <time>2016-05-25T12:02:55Z</time>
      </trkpt>
      <trkpt lat="43.24628" lon="5.7004">
        <ele>386.2</ele>
        <time>2016-05-25T12:03:25Z</time>
      </trkpt>
      <trkpt lat="43.24627" lon="5.70041">
        <ele>386.1</ele>
        <time>2016-05-25T12:03:26Z</time>
      </trkpt>
      <trkpt lat="43.24606" lon="5.70078">
        <ele>379.7</ele>
        <time>2016-05-25T12:04:50Z</time>
      </trkpt>
      <trkpt lat="43.24606" lon="5.70079">
        <ele>379.2</ele>
        <time>2016-05-25T12:04:51Z</time>
      </trkpt>
      <trkpt lat="43.24614" lon="5.701">
        <ele>375.1</ele>
        <time>2016-05-25T12:10:19Z</time>
      </trkpt>
      <trkpt lat="43.24647" lon="5.70112">
        <ele>370.2</ele>
        <time>2016-05-25T12:11:02Z</time>
      </trkpt>
      <trkpt lat="43.2466" lon="5.70129">
        <ele>368.8</ele>
        <time>2016-05-25T12:11:29Z</time>
      </trkpt>
      <trkpt lat="43.2466" lon="5.7013">
        <ele>369.1</ele>
        <time>2016-05-25T12:11:30Z</time>
      </trkpt>
      <trkpt lat="43.24691" lon="5.7014">
        <ele>380.6</ele>
        <time>2016-05-25T12:13:24Z</time>
      </trkpt>
      <trkpt lat="43.24691" lon="5.7014">
        <ele>380.2</ele>
        <time>2016-05-25T12:13:25Z</time>
      </trkpt>
      <trkpt lat="43.24723" lon="5.70124">
        <ele>361.1</ele>
        <time>2016-05-25T12:14:12Z</time>
      </trkpt>
      <trkpt lat="43.24738" lon="5.70112">
        <ele>357.6</ele>
        <time>2016-05-25T12:14:31Z</time>
      </trkpt>
      <trkpt lat="43.24739" lon="5.70112">
        <ele>358.7</ele>
        <time>2016-05-25T12:14:32Z</time>
      </trkpt>
      <trkpt lat="43.24769" lon="5.70091">
        <ele>362.8</ele>
        <time>2016-05-25T12:15:08Z</time>
      </trkpt>
      <trkpt lat="43.24783" lon="5.70076">
        <ele>362.2</ele>
        <time>2016-05-25T12:15:28Z</time>
      </trkpt>
      <trkpt lat="43.24798" lon="5.70063">
        <ele>362.1</ele>
        <time>2016-05-25T12:15:49Z</time>
      </trkpt>
      <trkpt lat="43.24798" lon="5.70062">
        <ele>361.6</ele>
        <time>2016-05-25T12:15:50Z</time>
      </trkpt>
      <trkpt lat="43.24828" lon="5.70043">
        <ele>366.5</ele>
        <time>2016-05-25T12:16:28Z</time>
      </trkpt>
      <trkpt lat="43.24842" lon="5.7003">
        <ele>365</ele>
        <time>2016-05-25T12:16:44Z</time>
      </trkpt>
      <trkpt lat="43.24858" lon="5.70018">
        <ele>368.3</ele>
        <time>2016-05-25T12:17:02Z</time>
      </trkpt>
      <trkpt lat="43.24859" lon="5.70018">
        <ele>368.6</ele>
        <time>2016-05-25T12:17:03Z</time>
      </trkpt>
      <trkpt lat="43.24882" lon="5.69984">
        <ele>367.8</ele>
        <time>2016-05-25T12:17:38Z</time>
      </trkpt>
      <trkpt lat="43.24896" lon="5.69969">
        <ele>368.8</ele>
        <time>2016-05-25T12:17:55Z</time>
      </trkpt>
      <trkpt lat="43.24907" lon="5.6995">
        <ele>369.8</ele>
        <time>2016-05-25T12:18:13Z</time>
      </trkpt>
      <trkpt lat="43.24908" lon="5.69949">
        <ele>369.6</ele>
        <time>2016-05-25T12:18:14Z</time>
      </trkpt>
      <trkpt lat="43.24931" lon="5.69915">
        <ele>375.7</ele>
        <time>2016-05-25T12:18:51Z</time>
      </trkpt>
      <trkpt lat="43.24943" lon="5.69897">
        <ele>375</ele>
        <time>2016-05-25T12:19:09Z</time>
      </trkpt>
      <trkpt lat="43.24958" lon="5.69884">
        <ele>378.1</ele>
        <time>2016-05-25T12:19:24Z</time>
      </trkpt>
      <trkpt lat="43.24958" lon="5.69884">
        <ele>378.1</ele>
        <time>2016-05-25T12:19:25Z</time>
      </trkpt>
      <trkpt lat="43.24987" lon="5.69858">
        <ele>378.1</ele>
        <time>2016-05-25T12:19:57Z</time>
      </trkpt>
      <trkpt lat="43.25" lon="5.69841">
        <ele>383.2</ele>
        <time>2016-05-25T12:20:14Z</time>
      </trkpt>
      <trkpt lat="43.25013" lon="5.69826">
        <ele>386.1</ele>
        <time>2016-05-25T12:20:31Z</time>
      </trkpt>
      <trkpt lat="43.25013" lon="5.69825">
        <ele>385.7</ele>
        <time>2016-05-25T12:20:32Z</time>
      </trkpt>
      <trkpt lat="43.25038" lon="5.69793">
        <ele>382.8</ele>
        <time>2016-05-25T12:21:03Z</time>
      </trkpt>
      <trkpt lat="43.25049" lon="5.69774">
        <ele>377.5</ele>
        <time>2016-05-25T12:21:20Z</time>
      </trkpt>
      <trkpt lat="43.25061" lon="5.69756">
        <ele>373.7</ele>
        <time>2016-05-25T12:21:36Z</time>
      </trkpt>
      <trkpt lat="43.25062" lon="5.69755">
        <ele>373.5</ele>
        <time>2016-05-25T12:21:37Z</time>
      </trkpt>
      <trkpt lat="43.25079" lon="5.69714">
        <ele>370.5</ele>
        <time>2016-05-25T12:22:08Z</time>
      </trkpt>
      <trkpt lat="43.25083" lon="5.69692">
        <ele>373.3</ele>
        <time>2016-05-25T12:22:24Z</time>
      </trkpt>
      <trkpt lat="43.25085" lon="5.69668">
        <ele>375.6</ele>
        <time>2016-05-25T12:22:41Z</time>
      </trkpt>
      <trkpt lat="43.25086" lon="5.69666">
        <ele>376.1</ele>
        <time>2016-05-25T12:22:42Z</time>
      </trkpt>
      <trkpt lat="43.25091" lon="5.6962">
        <ele>369</ele>
        <time>2016-05-25T12:23:21Z</time>
      </trkpt>
      <trkpt lat="43.25087" lon="5.69597">
        <ele>363.7</ele>
        <time>2016-05-25T12:23:37Z</time>
      </trkpt>
      <trkpt lat="43.25083" lon="5.69574">
        <ele>365</ele>
        <time>2016-05-25T12:23:51Z</time>
      </trkpt>
      <trkpt lat="43.25083" lon="5.69572">
        <ele>365.1</ele>
        <time>2016-05-25T12:23:52Z</time>
      </trkpt>
      <trkpt lat="43.25065" lon="5.69535">
        <ele>355.5</ele>
        <time>2016-05-25T12:24:24Z</time>
      </trkpt>
      <trkpt lat="43.25056" lon="5.69513">
        <ele>351.6</ele>
        <time>2016-05-25T12:24:42Z</time>
      </trkpt>
      <trkpt lat="43.25051" lon="5.69492">
        <ele>348.7</ele>
        <time>2016-05-25T12:24:59Z</time>
      </trkpt>
      <trkpt lat="43.2505" lon="5.6949">
        <ele>348.7</ele>
        <time>2016-05-25T12:25:00Z</time>
      </trkpt>
      <trkpt lat="43.25032" lon="5.69451">
        <ele>356.7</ele>
        <time>2016-05-25T12:25:53Z</time>
      </trkpt>
      <trkpt lat="43.25021" lon="5.69433">
        <ele>359.1</ele>
        <time>2016-05-25T12:26:10Z</time>
      </trkpt>
      <trkpt lat="43.25021" lon="5.69432">
        <ele>359</ele>
        <time>2016-05-25T12:26:11Z</time>
      </trkpt>
      <trkpt lat="43.25" lon="5.69394">
        <ele>357.7</ele>
        <time>2016-05-25T12:26:43Z</time>
      </trkpt>
      <trkpt lat="43.24988" lon="5.69376">
        <ele>365</ele>
        <time>2016-05-25T12:27:00Z</time>
      </trkpt>
      <trkpt lat="43.24972" lon="5.69364">
        <ele>357.1</ele>
        <time>2016-05-25T12:27:18Z</time>
      </trkpt>
      <trkpt lat="43.24971" lon="5.69364">
        <ele>357.2</ele>
        <time>2016-05-25T12:27:19Z</time>
      </trkpt>
      <trkpt lat="43.2495" lon="5.69329">
        <ele>368.2</ele>
        <time>2016-05-25T12:27:46Z</time>
      </trkpt>
      <trkpt lat="43.24939" lon="5.69311">
        <ele>365.8</ele>
        <time>2016-05-25T12:28:02Z</time>
      </trkpt>
      <trkpt lat="43.24923" lon="5.69303">
        <ele>360.6</ele>
        <time>2016-05-25T12:28:19Z</time>
      </trkpt>
      <trkpt lat="43.24922" lon="5.69302">
        <ele>360.3</ele>
        <time>2016-05-25T12:28:20Z</time>
      </trkpt>
      <trkpt lat="43.24894" lon="5.69274">
        <ele>363.8</ele>
        <time>2016-05-25T12:28:50Z</time>
      </trkpt>
      <trkpt lat="43.2488" lon="5.6926">
        <ele>366</ele>
        <time>2016-05-25T12:29:06Z</time>
      </trkpt>
      <trkpt lat="43.24864" lon="5.69249">
        <ele>362.5</ele>
        <time>2016-05-25T12:29:23Z</time>
      </trkpt>
      <trkpt lat="43.24863" lon="5.69248">
        <ele>362.2</ele>
        <time>2016-05-25T12:29:24Z</time>
      </trkpt>
      <trkpt lat="43.24834" lon="5.69221">
        <ele>347.2</ele>
        <time>2016-05-25T12:29:59Z</time>
      </trkpt>
      <trkpt lat="43.2482" lon="5.69209">
        <ele>339</ele>
        <time>2016-05-25T12:30:17Z</time>
      </trkpt>
      <trkpt lat="43.24807" lon="5.69193">
        <ele>331.8</ele>
        <time>2016-05-25T12:30:37Z</time>
      </trkpt>
      <trkpt lat="43.24806" lon="5.69192">
        <ele>331.1</ele>
        <time>2016-05-25T12:30:38Z</time>
      </trkpt>
      <trkpt lat="43.24785" lon="5.69157">
        <ele>334</ele>
        <time>2016-05-25T12:31:06Z</time>
      </trkpt>
      <trkpt lat="43.24775" lon="5.69138">
        <ele>324</ele>
        <time>2016-05-25T12:31:24Z</time>
      </trkpt>
      <trkpt lat="43.24764" lon="5.69119">
        <ele>313.2</ele>
        <time>2016-05-25T12:31:43Z</time>
      </trkpt>
      <trkpt lat="43.24763" lon="5.69118">
        <ele>312.6</ele>
        <time>2016-05-25T12:31:44Z</time>
      </trkpt>
      <trkpt lat="43.24741" lon="5.69082">
        <ele>324.7</ele>
        <time>2016-05-25T12:32:21Z</time>
      </trkpt>
      <trkpt lat="43.24725" lon="5.69071">
        <ele>347</ele>
        <time>2016-05-25T12:33:02Z</time>
      </trkpt>
      <trkpt lat="43.24724" lon="5.69072">
        <ele>345.7</ele>
        <time>2016-05-25T12:33:03Z</time>
      </trkpt>
      <trkpt lat="43.24692" lon="5.69052">
        <ele>327.7</ele>
        <time>2016-05-25T12:34:00Z</time>
      </trkpt>
      <trkpt lat="43.24674" lon="5.6905">
        <ele>346.2</ele>
        <time>2016-05-25T12:34:27Z</time>
      </trkpt>
      <trkpt lat="43.24673" lon="5.69049">
        <ele>347</ele>
        <time>2016-05-25T12:34:28Z</time>
      </trkpt>
      <trkpt lat="43.24643" lon="5.69066">
        <ele>362.5</ele>
        <time>2016-05-25T12:35:19Z</time>
      </trkpt>
      <trkpt lat="43.24625" lon="5.69065">
        <ele>357</ele>
        <time>2016-05-25T12:35:45Z</time>
      </trkpt>
      <trkpt lat="43.24624" lon="5.69065">
        <ele>356.8</ele>
        <time>2016-05-25T12:35:46Z</time>
      </trkpt>
      <trkpt lat="43.246" lon="5.69032">
        <ele>368.7</ele>
        <time>2016-05-25T12:38:35Z</time>
      </trkpt>
      <trkpt lat="43.246" lon="5.69031">
        <ele>369.7</ele>
        <time>2016-05-25T12:38:36Z</time>
      </trkpt>
      <trkpt lat="43.24592" lon="5.68995">
        <ele>363.1</ele>
        <time>2016-05-25T12:39:37Z</time>
      </trkpt>
      <trkpt lat="43.24592" lon="5.68994">
        <ele>363.2</ele>
        <time>2016-05-25T12:39:38Z</time>
      </trkpt>
      <trkpt lat="43.24609" lon="5.68954">
        <ele>362.3</ele>
        <time>2016-05-25T12:40:14Z</time>
      </trkpt>
      <trkpt lat="43.24614" lon="5.68931">
        <ele>379.2</ele>
        <time>2016-05-25T12:40:28Z</time>
      </trkpt>
      <trkpt lat="43.24613" lon="5.68907">
        <ele>373.6</ele>
        <time>2016-05-25T12:40:53Z</time>
      </trkpt>
      <trkpt lat="43.24613" lon="5.68906">
        <ele>373.1</ele>
        <time>2016-05-25T12:40:54Z</time>
      </trkpt>
      <trkpt lat="43.24613" lon="5.6886">
        <ele>363.2</ele>
        <time>2016-05-25T12:41:34Z</time>
      </trkpt>
      <trkpt lat="43.24607" lon="5.68837">
        <ele>369.1</ele>
        <time>2016-05-25T12:41:52Z</time>
      </trkpt>
      <trkpt lat="43.24601" lon="5.68814">
        <ele>370.2</ele>
        <time>2016-05-25T12:42:09Z</time>
      </trkpt>
      <trkpt lat="43.24601" lon="5.68813">
        <ele>369.8</ele>
        <time>2016-05-25T12:42:10Z</time>
      </trkpt>
      <trkpt lat="43.24606" lon="5.68767">
        <ele>371.1</ele>
        <time>2016-05-25T12:42:48Z</time>
      </trkpt>
      <trkpt lat="43.24606" lon="5.68743">
        <ele>372.5</ele>
        <time>2016-05-25T12:43:04Z</time>
      </trkpt>
      <trkpt lat="43.24607" lon="5.68719">
        <ele>377.7</ele>
        <time>2016-05-25T12:43:21Z</time>
      </trkpt>
      <trkpt lat="43.24607" lon="5.68718">
        <ele>378.3</ele>
        <time>2016-05-25T12:43:22Z</time>
      </trkpt>
      <trkpt lat="43.24612" lon="5.68672">
        <ele>380.2</ele>
        <time>2016-05-25T12:43:57Z</time>
      </trkpt>
      <trkpt lat="43.24612" lon="5.68648">
        <ele>384.8</ele>
        <time>2016-05-25T12:44:15Z</time>
      </trkpt>
      <trkpt lat="43.24607" lon="5.68624">
        <ele>387.3</ele>
        <time>2016-05-25T12:44:33Z</time>
      </trkpt>
      <trkpt lat="43.24607" lon="5.68622">
        <ele>387.7</ele>
        <time>2016-05-25T12:44:34Z</time>
      </trkpt>
      <trkpt lat="43.24592" lon="5.68581">
        <ele>385.5</ele>
        <time>2016-05-25T12:45:09Z</time>
      </trkpt>
      <trkpt lat="43.2459" lon="5.68557">
        <ele>388.8</ele>
        <time>2016-05-25T12:45:27Z</time>
      </trkpt>
      <trkpt lat="43.24583" lon="5.68534">
        <ele>386</ele>
        <time>2016-05-25T12:45:48Z</time>
      </trkpt>
      <trkpt lat="43.24583" lon="5.68533">
        <ele>386.1</ele>
        <time>2016-05-25T12:45:49Z</time>
      </trkpt>
      <trkpt lat="43.24587" lon="5.68487">
        <ele>396.3</ele>
        <time>2016-05-25T12:46:24Z</time>
      </trkpt>
      <trkpt lat="43.24585" lon="5.68464">
        <ele>399.5</ele>
        <time>2016-05-25T12:46:42Z</time>
      </trkpt>
      <trkpt lat="43.24585" lon="5.6844">
        <ele>399.7</ele>
        <time>2016-05-25T12:47:00Z</time>
      </trkpt>
      <trkpt lat="43.24584" lon="5.68439">
        <ele>399.6</ele>
        <time>2016-05-25T12:47:01Z</time>
      </trkpt>
      <trkpt lat="43.24597" lon="5.68396">
        <ele>399.2</ele>
        <time>2016-05-25T12:51:30Z</time>
      </trkpt>
      <trkpt lat="43.24598" lon="5.68395">
        <ele>399.5</ele>
        <time>2016-05-25T12:51:31Z</time>
      </trkpt>
      <trkpt lat="43.24615" lon="5.68355">
        <ele>400.6</ele>
        <time>2016-05-25T12:52:14Z</time>
      </trkpt>
      <trkpt lat="43.24627" lon="5.68339">
        <ele>400.2</ele>
        <time>2016-05-25T12:52:37Z</time>
      </trkpt>
      <trkpt lat="43.24628" lon="5.68337">
        <ele>401</ele>
        <time>2016-05-25T12:52:38Z</time>
      </trkpt>
      <trkpt lat="43.24641" lon="5.68295">
        <ele>403.2</ele>
        <time>2016-05-25T12:53:29Z</time>
      </trkpt>
      <trkpt lat="43.2465" lon="5.68274">
        <ele>406.7</ele>
        <time>2016-05-25T12:54:01Z</time>
      </trkpt>
      <trkpt lat="43.2465" lon="5.68274">
        <ele>406.8</ele>
        <time>2016-05-25T12:54:02Z</time>
      </trkpt>
      <trkpt lat="43.24667" lon="5.68233">
        <ele>422.6</ele>
        <time>2016-05-25T12:55:24Z</time>
      </trkpt>
      <trkpt lat="43.24667" lon="5.68232">
        <ele>423</ele>
        <time>2016-05-25T12:55:25Z</time>
      </trkpt>
      <trkpt lat="43.24678" lon="5.68188">
        <ele>427.7</ele>
        <time>2016-05-25T12:56:22Z</time>
      </trkpt>
      <trkpt lat="43.24682" lon="5.68165">
        <ele>429.8</ele>
        <time>2016-05-25T12:56:44Z</time>
      </trkpt>
      <trkpt lat="43.24682" lon="5.68164">
        <ele>429.7</ele>
        <time>2016-05-25T12:56:45Z</time>
      </trkpt>
      <trkpt lat="43.2468" lon="5.68118">
        <ele>437.1</ele>
        <time>2016-05-25T12:57:28Z</time>
      </trkpt>
      <trkpt lat="43.24666" lon="5.68103">
        <ele>438.7</ele>
        <time>2016-05-25T12:59:25Z</time>
      </trkpt>
      <trkpt lat="43.24666" lon="5.68102">
        <ele>438.6</ele>
        <time>2016-05-25T12:59:26Z</time>
      </trkpt>
      <trkpt lat="43.24631" lon="5.68097">
        <ele>439.2</ele>
        <time>2016-05-25T13:00:06Z</time>
      </trkpt>
      <trkpt lat="43.24614" lon="5.68095">
        <ele>440</ele>
        <time>2016-05-25T13:00:23Z</time>
      </trkpt>
      <trkpt lat="43.24597" lon="5.68093">
        <ele>441.2</ele>
        <time>2016-05-25T13:00:40Z</time>
      </trkpt>
      <trkpt lat="43.24596" lon="5.68093">
        <ele>441.3</ele>
        <time>2016-05-25T13:00:41Z</time>
      </trkpt>
      <trkpt lat="43.24562" lon="5.68088">
        <ele>447.7</ele>
        <time>2016-05-25T13:01:18Z</time>
      </trkpt>
      <trkpt lat="43.24546" lon="5.68077">
        <ele>452.2</ele>
        <time>2016-05-25T13:01:38Z</time>
      </trkpt>
      <trkpt lat="43.24533" lon="5.68062">
        <ele>452.2</ele>
        <time>2016-05-25T13:01:53Z</time>
      </trkpt>
      <trkpt lat="43.24533" lon="5.6806">
        <ele>452.2</ele>
        <time>2016-05-25T13:01:54Z</time>
      </trkpt>
      <trkpt lat="43.24514" lon="5.6802">
        <ele>451.6</ele>
        <time>2016-05-25T13:02:22Z</time>
      </trkpt>
      <trkpt lat="43.24504" lon="5.68">
        <ele>455.3</ele>
        <time>2016-05-25T13:02:38Z</time>
      </trkpt>
      <trkpt lat="43.24493" lon="5.6798">
        <ele>456.8</ele>
        <time>2016-05-25T13:02:53Z</time>
      </trkpt>
      <trkpt lat="43.24483" lon="5.6796">
        <ele>452.1</ele>
        <time>2016-05-25T13:03:07Z</time>
      </trkpt>
      <trkpt lat="43.24483" lon="5.67958">
        <ele>451.8</ele>
        <time>2016-05-25T13:03:08Z</time>
      </trkpt>
      <trkpt lat="43.24461" lon="5.6794">
        <ele>442.2</ele>
        <time>2016-05-25T13:03:58Z</time>
      </trkpt>
      <trkpt lat="43.24445" lon="5.67949">
        <ele>445</ele>
        <time>2016-05-25T13:04:21Z</time>
      </trkpt>
      <trkpt lat="43.24444" lon="5.6795">
        <ele>445.2</ele>
        <time>2016-05-25T13:04:22Z</time>
      </trkpt>
      <trkpt lat="43.24418" lon="5.67918">
        <ele>442.3</ele>
        <time>2016-05-25T13:04:55Z</time>
      </trkpt>
      <trkpt lat="43.24408" lon="5.67898">
        <ele>441.8</ele>
        <time>2016-05-25T13:05:11Z</time>
      </trkpt>
      <trkpt lat="43.24397" lon="5.67881">
        <ele>438.3</ele>
        <time>2016-05-25T13:05:27Z</time>
      </trkpt>
      <trkpt lat="43.24396" lon="5.67879">
        <ele>438.1</ele>
        <time>2016-05-25T13:05:28Z</time>
      </trkpt>
      <trkpt lat="43.24368" lon="5.67853">
        <ele>443.6</ele>
        <time>2016-05-25T13:06:01Z</time>
      </trkpt>
      <trkpt lat="43.24353" lon="5.67841">
        <ele>440.7</ele>
        <time>2016-05-25T13:06:18Z</time>
      </trkpt>
      <trkpt lat="43.2434" lon="5.67823">
        <ele>440.1</ele>
        <time>2016-05-25T13:06:34Z</time>
      </trkpt>
      <trkpt lat="43.24339" lon="5.67822">
        <ele>439.7</ele>
        <time>2016-05-25T13:06:35Z</time>
      </trkpt>
      <trkpt lat="43.24313" lon="5.67793">
        <ele>437.2</ele>
        <time>2016-05-25T13:07:13Z</time>
      </trkpt>
      <trkpt lat="43.24298" lon="5.6778">
        <ele>436</ele>
        <time>2016-05-25T13:07:33Z</time>
      </trkpt>
      <trkpt lat="43.24285" lon="5.67765">
        <ele>433.3</ele>
        <time>2016-05-25T13:07:49Z</time>
      </trkpt>
      <trkpt lat="43.24285" lon="5.67764">
        <ele>433.3</ele>
        <time>2016-05-25T13:07:50Z</time>
      </trkpt>
      <trkpt lat="43.24255" lon="5.67744">
        <ele>429.7</ele>
        <time>2016-05-25T13:08:24Z</time>
      </trkpt>
      <trkpt lat="43.2424" lon="5.67731">
        <ele>428.2</ele>
        <time>2016-05-25T13:08:40Z</time>
      </trkpt>
      <trkpt lat="43.24227" lon="5.67716">
        <ele>428.1</ele>
        <time>2016-05-25T13:08:59Z</time>
      </trkpt>
      <trkpt lat="43.24226" lon="5.67715">
        <ele>428.6</ele>
        <time>2016-05-25T13:09:00Z</time>
      </trkpt>
      <trkpt lat="43.24201" lon="5.67683">
        <ele>425.8</ele>
        <time>2016-05-25T13:09:31Z</time>
      </trkpt>
      <trkpt lat="43.24186" lon="5.67671">
        <ele>426.7</ele>
        <time>2016-05-25T13:09:47Z</time>
      </trkpt>
      <trkpt lat="43.24171" lon="5.67658">
        <ele>425.1</ele>
        <time>2016-05-25T13:10:02Z</time>
      </trkpt>
      <trkpt lat="43.24171" lon="5.67657">
        <ele>424.8</ele>
        <time>2016-05-25T13:10:03Z</time>
      </trkpt>
      <trkpt lat="43.24142" lon="5.6763">
        <ele>422.3</ele>
        <time>2016-05-25T13:10:35Z</time>
      </trkpt>
      <trkpt lat="43.24126" lon="5.6764">
        <ele>420.6</ele>
        <time>2016-05-25T13:10:54Z</time>
      </trkpt>
      <trkpt lat="43.2411" lon="5.6765">
        <ele>416.5</ele>
        <time>2016-05-25T13:11:10Z</time>
      </trkpt>
      <trkpt lat="43.24109" lon="5.6765">
        <ele>416.2</ele>
        <time>2016-05-25T13:11:11Z</time>
      </trkpt>
      <trkpt lat="43.24076" lon="5.67643">
        <ele>420</ele>
        <time>2016-05-25T13:11:42Z</time>
      </trkpt>
      <trkpt lat="43.2406" lon="5.67633">
        <ele>420.1</ele>
        <time>2016-05-25T13:11:54Z</time>
      </trkpt>
      <trkpt lat="43.2405" lon="5.67613">
        <ele>417.8</ele>
        <time>2016-05-25T13:12:08Z</time>
      </trkpt>
      <trkpt lat="43.24044" lon="5.6759">
        <ele>414.7</ele>
        <time>2016-05-25T13:12:23Z</time>
      </trkpt>
      <trkpt lat="43.24043" lon="5.67589">
        <ele>414.3</ele>
        <time>2016-05-25T13:12:24Z</time>
      </trkpt>
      <trkpt lat="43.24029" lon="5.67547">
        <ele>422.6</ele>
        <time>2016-05-25T13:12:53Z</time>
      </trkpt>
      <trkpt lat="43.24017" lon="5.6753">
        <ele>419.2</ele>
        <time>2016-05-25T13:13:09Z</time>
      </trkpt>
      <trkpt lat="43.24003" lon="5.67516">
        <ele>418.2</ele>
        <time>2016-05-25T13:13:24Z</time>
      </trkpt>
      <trkpt lat="43.24002" lon="5.67514">
        <ele>418.5</ele>
        <time>2016-05-25T13:13:25Z</time>
      </trkpt>
      <trkpt lat="43.23974" lon="5.67487">
        <ele>421.2</ele>
        <time>2016-05-25T13:13:51Z</time>
      </trkpt>
      <trkpt lat="43.2396" lon="5.67472">
        <ele>418.5</ele>
        <time>2016-05-25T13:14:05Z</time>
      </trkpt>
      <trkpt lat="43.23948" lon="5.67456">
        <ele>416.3</ele>
        <time>2016-05-25T13:14:19Z</time>
      </trkpt>
      <trkpt lat="43.23933" lon="5.67443">
        <ele>415.5</ele>
        <time>2016-05-25T13:14:36Z</time>
      </trkpt>
      <trkpt lat="43.23933" lon="5.67442">
        <ele>415.2</ele>
        <time>2016-05-25T13:14:37Z</time>
      </trkpt>
      <trkpt lat="43.23905" lon="5.67419">
        <ele>411.2</ele>
        <time>2016-05-25T13:15:07Z</time>
      </trkpt>
      <trkpt lat="43.23891" lon="5.67403">
        <ele>415.2</ele>
        <time>2016-05-25T13:15:21Z</time>
      </trkpt>
      <trkpt lat="43.23879" lon="5.67386">
        <ele>412.2</ele>
        <time>2016-05-25T13:15:37Z</time>
      </trkpt>
      <trkpt lat="43.23878" lon="5.67385">
        <ele>412.6</ele>
        <time>2016-05-25T13:15:38Z</time>
      </trkpt>
      <trkpt lat="43.23852" lon="5.67356">
        <ele>416.1</ele>
        <time>2016-05-25T13:16:05Z</time>
      </trkpt>
      <trkpt lat="43.23836" lon="5.67345">
        <ele>412.7</ele>
        <time>2016-05-25T13:16:21Z</time>
      </trkpt>
      <trkpt lat="43.2382" lon="5.67337">
        <ele>409.7</ele>
        <time>2016-05-25T13:16:38Z</time>
      </trkpt>
      <trkpt lat="43.23819" lon="5.67336">
        <ele>409.3</ele>
        <time>2016-05-25T13:16:39Z</time>
      </trkpt>
      <trkpt lat="43.23793" lon="5.67306">
        <ele>408</ele>
        <time>2016-05-25T13:17:08Z</time>
      </trkpt>
      <trkpt lat="43.23779" lon="5.67291">
        <ele>404.8</ele>
        <time>2016-05-25T13:17:22Z</time>
      </trkpt>
      <trkpt lat="43.23767" lon="5.67272">
        <ele>405.6</ele>
        <time>2016-05-25T13:17:40Z</time>
      </trkpt>
      <trkpt lat="43.23767" lon="5.67271">
        <ele>405.3</ele>
        <time>2016-05-25T13:17:41Z</time>
      </trkpt>
      <trkpt lat="43.23739" lon="5.67243">
        <ele>403.7</ele>
        <time>2016-05-25T13:18:12Z</time>
      </trkpt>
      <trkpt lat="43.23728" lon="5.67226">
        <ele>404.5</ele>
        <time>2016-05-25T13:18:26Z</time>
      </trkpt>
      <trkpt lat="43.23719" lon="5.67206">
        <ele>401</ele>
        <time>2016-05-25T13:18:42Z</time>
      </trkpt>
      <trkpt lat="43.23718" lon="5.67205">
        <ele>400.8</ele>
        <time>2016-05-25T13:18:43Z</time>
      </trkpt>
      <trkpt lat="43.23706" lon="5.67162">
        <ele>400.2</ele>
        <time>2016-05-25T13:19:11Z</time>
      </trkpt>
      <trkpt lat="43.237" lon="5.6714">
        <ele>401.2</ele>
        <time>2016-05-25T13:19:25Z</time>
      </trkpt>
      <trkpt lat="43.23694" lon="5.67116">
        <ele>399.8</ele>
        <time>2016-05-25T13:19:38Z</time>
      </trkpt>
      <trkpt lat="43.2369" lon="5.67093">
        <ele>396.6</ele>
        <time>2016-05-25T13:19:51Z</time>
      </trkpt>
      <trkpt lat="43.23689" lon="5.67091">
        <ele>396.2</ele>
        <time>2016-05-25T13:19:52Z</time>
      </trkpt>
      <trkpt lat="43.23683" lon="5.67046">
        <ele>395.6</ele>
        <time>2016-05-25T13:20:18Z</time>
      </trkpt>
      <trkpt lat="43.23676" lon="5.67023">
        <ele>393.8</ele>
        <time>2016-05-25T13:20:34Z</time>
      </trkpt>
      <trkpt lat="43.23659" lon="5.67024">
        <ele>393</ele>
        <time>2016-05-25T13:20:52Z</time>
      </trkpt>
      <trkpt lat="43.23658" lon="5.67025">
        <ele>392.8</ele>
        <time>2016-05-25T13:20:53Z</time>
      </trkpt>
      <trkpt lat="43.23626" lon="5.67036">
        <ele>392.2</ele>
        <time>2016-05-25T13:21:19Z</time>
      </trkpt>
      <trkpt lat="43.23609" lon="5.67039">
        <ele>392.2</ele>
        <time>2016-05-25T13:21:31Z</time>
      </trkpt>
      <trkpt lat="43.23591" lon="5.67037">
        <ele>394</ele>
        <time>2016-05-25T13:21:44Z</time>
      </trkpt>
      <trkpt lat="43.23573" lon="5.67033">
        <ele>397</ele>
        <time>2016-05-25T13:22:01Z</time>
      </trkpt>
      <trkpt lat="43.23572" lon="5.67033">
        <ele>397.2</ele>
        <time>2016-05-25T13:22:02Z</time>
      </trkpt>
    </trkseg>
  </trk>
</gpx>